Time;durP1;ratioP1;P1;durP2;ratioP2;P2;SDS_P1;SDS_P2;PMS_P1;PMS_P2;Temp;Humidity;BMP_temperature;BMP_pressure;BME280_temperature;BME280_humidity;BME280_pressure;Samples;Min_cycle;Max_cycle;Signal;HPM_P1;HPM_P2
2022/03/01 00:00:32;;;;;;;6.57;3.80;;;;;;;1.48;49.49;100393.09;5053584;28;43422;-75
2022/03/01 00:03:00;;;;;;;8.97;5.17;;;;;;;1.48;49.50;100399.19;5055154;28;40939;-76
2022/03/01 00:05:28;;;;;;;8.03;3.90;;;;;;;1.42;49.14;100399.19;5054399;28;41716;-76
2022/03/01 00:07:55;;;;;;;7.47;4.57;;;;;;;1.38;49.33;100408.75;5071650;28;43549;-76
2022/03/01 00:10:23;;;;;;;9.53;4.20;;;;;;;1.23;49.47;100387.03;5072586;28;42553;-75
2022/03/01 00:12:51;;;;;;;11.63;4.83;;;;;;;1.26;49.73;100400.06;5054805;28;40328;-75
2022/03/01 00:15:18;;;;;;;9.67;4.47;;;;;;;1.12;50.18;100387.00;5054516;28;42109;-75
2022/03/01 00:17:47;;;;;;;8.67;5.00;;;;;;;1.20;49.95;100400.06;5071483;28;42648;-75
2022/03/01 00:20:15;;;;;;;9.23;5.00;;;;;;;1.15;50.17;100409.63;5072580;28;43303;-76
2022/03/01 00:22:43;;;;;;;6.50;3.77;;;;;;;1.11;49.84;100402.69;5071514;28;39306;-75
2022/03/01 00:25:10;;;;;;;8.73;4.47;;;;;;;1.04;49.50;100410.50;5071054;28;41592;-75
2022/03/01 00:27:38;;;;;;;6.43;3.23;;;;;;;0.98;49.53;100415.72;5072339;28;43927;-75
2022/03/01 00:30:07;;;;;;;8.57;4.37;;;;;;;0.92;49.47;100404.41;5053967;28;43450;-75
2022/03/01 00:32:34;;;;;;;9.70;4.90;;;;;;;0.85;50.25;100403.53;5072349;28;40264;-76
2022/03/01 00:35:04;;;;;;;6.20;3.93;;;;;;;0.80;50.41;100402.63;5072287;28;41797;-75
2022/03/01 00:37:31;;;;;;;8.47;4.33;;;;;;;0.77;50.34;100402.63;5053935;28;43079;-76
2022/03/01 00:39:59;;;;;;;6.53;4.10;;;;;;;0.73;51.63;100398.28;5072268;28;42242;-76
2022/03/01 00:42:26;;;;;;;7.53;4.80;;;;;;;0.34;51.27;100342.59;5071001;28;40523;-75
2022/03/01 00:44:54;;;;;;;8.70;4.60;;;;;;;0.63;51.27;100392.16;5070823;28;42152;-76
2022/03/01 00:47:22;;;;;;;6.80;4.37;;;;;;;0.60;51.93;100386.09;5072155;28;42719;-76
2022/03/01 00:49:50;;;;;;;6.67;4.27;;;;;;;0.60;51.84;100379.16;5071787;28;43175;-75
2022/03/01 00:52:19;;;;;;;10.50;5.03;;;;;;;0.61;51.79;100382.63;5053966;28;39793;-75
2022/03/01 00:54:46;;;;;;;8.47;4.93;;;;;;;0.57;52.93;100365.22;5070814;28;41784;-75
2022/03/01 00:57:14;;;;;;;8.20;4.17;;;;;;;0.55;52.76;100372.19;5053790;28;42670;-75
2022/03/01 00:59:41;;;;;;;6.77;4.27;;;;;;;0.57;52.32;100380.88;5052612;28;42220;-75
2022/03/01 01:02:09;;;;;;;8.93;4.50;;;;;;;0.56;52.13;100369.56;5070705;28;40029;-75
2022/03/01 01:04:36;;;;;;;7.77;4.07;;;;;;;0.26;51.66;100322.59;5053778;28;41440;-75
2022/03/01 01:07:05;;;;;;;6.43;4.70;;;;;;;0.57;51.82;100371.31;5071369;28;42520;-76
2022/03/01 01:09:34;;;;;;;8.70;4.40;;;;;;;0.54;52.85;100362.63;5053680;28;43180;-75
2022/03/01 01:12:02;;;;;;;9.97;5.60;;;;;;;0.53;52.70;100363.47;5050639;28;39935;-75
2022/03/01 01:14:29;;;;;;;9.70;4.33;;;;;;;0.53;52.14;100368.69;5033413;28;43421;-76
2022/03/01 01:16:57;;;;;;;9.77;5.53;;;;;;;0.53;52.11;100366.09;5033665;28;42898;-76
2022/03/01 01:19:25;;;;;;;13.47;5.67;;;;;;;0.51;52.50;100365.22;5050412;28;42409;-76
2022/03/01 01:24:39;;;;;;;7.00;4.10;;;;;;;0.46;52.75;100357.41;5050327;28;41055;-74
2022/03/01 01:27:06;;;;;;;8.00;4.53;;;;;;;0.43;52.97;100346.09;5049971;28;43462;-74
2022/03/01 01:29:38;;;;;;;10.00;5.47;;;;;;;0.42;53.01;100352.16;5033255;28;41274;-76
2022/03/01 01:32:07;;;;;;;9.33;4.57;;;;;;;0.40;52.86;100341.72;5050135;28;40336;-74
2022/03/01 01:34:35;;;;;;;8.40;4.63;;;;;;;0.38;52.61;100347.78;5033354;28;44132;-74
2022/03/01 01:37:03;;;;;;;11.50;5.10;;;;;;;0.34;52.59;100354.75;5033519;28;44561;-73
2022/03/01 01:39:30;;;;;;;6.93;4.00;;;;;;;0.23;52.80;100340.84;5033008;28;42128;-74
2022/03/01 01:42:00;;;;;;;7.60;5.03;;;;;;;0.27;53.02;100345.16;5050125;28;40375;-74
2022/03/01 01:44:30;;;;;;;8.77;4.30;;;;;;;0.20;52.97;100341.69;5051018;28;41847;-74
2022/03/01 01:46:58;;;;;;;8.17;4.33;;;;;;;0.01;53.17;100313.81;5051307;28;44268;-74
2022/03/01 01:49:26;;;;;;;9.90;4.40;;;;;;;0.13;53.47;100331.22;5062511;28;43646;-74
2022/03/01 01:51:54;;;;;;;7.97;4.73;;;;;;;0.12;53.17;100338.19;5053405;28;40172;-74
2022/03/01 01:54:22;;;;;;;9.43;4.70;;;;;;;0.11;53.07;100341.66;5069752;28;41809;-74
2022/03/01 01:56:50;;;;;;;7.43;4.03;;;;;;;0.07;53.09;100347.72;5071469;28;43898;-74
2022/03/01 01:59:19;;;;;;;12.73;5.27;;;;;;;0.04;53.00;100352.91;5070168;28;42233;-74
2022/03/01 02:01:47;;;;;;;13.87;5.83;;;;;;;-0.01;53.96;100341.63;5071619;28;40937;-75
2022/03/01 02:04:15;;;;;;;8.33;4.90;;;;;;;-0.04;53.44;100350.28;5053162;28;42215;-74
2022/03/01 02:06:50;;;;;;;7.60;4.10;;;;;;;-0.06;53.05;100351.16;5053488;28;41993;-75
2022/03/01 02:09:18;;;;;;;6.60;4.30;;;;;;;-0.08;52.56;100363.28;5067037;28;43141;-75
2022/03/01 02:11:46;;;;;;;9.13;4.93;;;;;;;-0.12;52.56;100364.13;5071031;28;39994;-76
2022/03/01 02:14:14;;;;;;;8.17;4.27;;;;;;;-0.16;52.66;100365.00;5073419;28;41455;-74
2022/03/01 02:16:44;;;;;;;8.57;4.17;;;;;;;-0.20;52.96;100350.22;5056383;28;44761;-74
2022/03/01 02:19:14;;;;;;;6.50;3.50;;;;;;;-0.23;53.67;100353.66;5073139;28;42267;-74
2022/03/01 02:21:51;;;;;;;6.37;3.43;;;;;;;-0.25;53.74;100354.53;5070370;28;41266;-74
2022/03/01 02:24:20;;;;;;;10.07;4.93;;;;;;;-0.29;53.81;100350.16;5070395;28;41715;-74
2022/03/01 02:26:48;;;;;;;9.07;5.17;;;;;;;-0.32;53.28;100351.03;5056240;28;43898;-74
2022/03/01 02:29:16;;;;;;;7.97;4.47;;;;;;;-0.40;53.57;100345.78;5073882;28;42230;-74
2022/03/01 02:31:44;;;;;;;9.67;4.83;;;;;;;-0.38;53.63;100344.06;5056475;28;39817;-76
2022/03/01 02:34:11;;;;;;;9.70;5.40;;;;;;;-0.45;54.06;100331.88;5072819;28;41850;-76
2022/03/01 02:36:47;;;;;;;10.00;5.13;;;;;;;-0.39;54.20;100337.13;5055923;28;42043;-76
2022/03/01 02:39:17;;;;;;;8.93;4.77;;;;;;;-0.39;54.16;100338.84;5072645;28;42237;-75
2022/03/01 02:41:46;;;;;;;6.77;4.83;;;;;;;-0.40;54.35;100337.09;5073363;28;40589;-76
2022/03/01 02:44:15;;;;;;;8.47;4.97;;;;;;;-0.45;53.84;100331.00;5072433;28;41594;-73
2022/03/01 02:46:43;;;;;;;11.63;5.87;;;;;;;-0.44;53.91;100335.34;5072088;28;42830;-76
2022/03/01 02:49:11;;;;;;;10.80;4.97;;;;;;;-0.42;53.60;100342.31;5072502;28;41482;-76
2022/03/01 02:51:39;;;;;;;9.40;5.10;;;;;;;-0.42;53.46;100344.91;5055883;28;39107;-77
2022/03/01 02:54:08;;;;;;;7.73;4.10;;;;;;;-0.47;53.93;100357.00;5072093;28;42398;-73
2022/03/01 02:56:39;;;;;;;8.00;4.50;;;;;;;-0.50;53.84;100351.81;5073923;28;42815;-76
2022/03/01 02:59:07;;;;;;;10.47;4.67;;;;;;;-0.50;53.64;100348.34;5066569;28;42184;-77
2022/03/01 03:01:35;;;;;;;7.63;3.77;;;;;;;-0.60;54.18;100339.56;5074095;28;40769;-73
2022/03/01 03:04:02;;;;;;;8.77;4.93;;;;;;;-0.54;54.77;100342.22;5055893;28;41891;-73
2022/03/01 03:06:30;;;;;;;9.53;5.03;;;;;;;-0.60;54.84;100331.78;5055642;28;41812;-74
2022/03/01 03:08:58;;;;;;;10.37;5.23;;;;;;;-0.55;55.06;100345.69;5072418;28;43052;-74
2022/03/01 03:11:26;;;;;;;9.43;4.87;;;;;;;-0.54;55.95;100334.41;5073932;28;40115;-76
2022/03/01 03:13:55;;;;;;;11.67;5.60;;;;;;;-0.53;55.45;100343.09;5072647;28;41692;-76
2022/03/01 03:16:23;;;;;;;13.77;5.00;;;;;;;-0.54;55.07;100352.63;5055226;28;42756;-76
2022/03/01 03:18:51;;;;;;;6.83;4.20;;;;;;;-0.54;54.96;100342.22;5072367;28;42456;-76
2022/03/01 03:21:19;;;;;;;11.00;6.07;;;;;;;-0.55;54.81;100345.69;5072130;28;41800;-73
2022/03/01 03:23:47;;;;;;;9.93;5.37;;;;;;;-0.58;54.66;100347.38;5055012;28;41827;-76
2022/03/01 03:26:15;;;;;;;8.50;4.23;;;;;;;-0.61;54.37;100345.63;5055252;28;41419;-76
2022/03/01 03:28:42;;;;;;;6.37;3.67;;;;;;;-0.65;54.23;100343.03;5055137;28;43113;-74
2022/03/01 03:31:12;;;;;;;5.17;3.60;;;;;;;-0.68;54.28;100343.00;5055189;28;40442;-74
2022/03/01 03:33:46;;;;;;;8.53;4.77;;;;;;;-0.74;54.28;100346.41;5070442;28;41987;-74
2022/03/01 03:36:14;;;;;;;7.93;4.17;;;;;;;-0.78;54.56;100336.88;5071789;28;41695;-77
2022/03/01 03:38:41;;;;;;;13.37;6.17;;;;;;;-0.81;54.49;100342.03;5072106;28;42290;-74
2022/03/01 03:41:09;;;;;;;10.73;4.70;;;;;;;-0.86;54.06;100348.94;5071149;28;40700;-74
2022/03/01 03:43:37;;;;;;;8.20;3.87;;;;;;;-0.90;54.34;100336.78;5071834;28;41647;-74
2022/03/01 03:46:04;;;;;;;7.03;4.37;;;;;;;-0.94;55.03;100340.22;5071965;28;42553;-74
2022/03/01 03:48:34;;;;;;;7.33;3.90;;;;;;;-0.97;54.86;100333.25;5071998;28;42379;-75
2022/03/01 03:51:02;;;;;;;7.23;4.63;;;;;;;-1.02;55.25;100337.56;5054880;28;41359;-74
2022/03/01 03:53:30;;;;;;;8.30;4.47;;;;;;;-1.05;54.86;100336.66;5071992;28;42662;-74
2022/03/01 03:55:57;;;;;;;6.13;3.63;;;;;;;-1.10;55.00;100340.09;5054754;28;41640;-73
2022/03/01 03:58:25;;;;;;;8.40;4.73;;;;;;;-1.13;54.86;100336.63;5072337;28;42324;-74
2022/03/01 04:00:53;;;;;;;9.67;4.47;;;;;;;-1.12;55.39;100336.63;5070779;28;40829;-75
2022/03/01 04:03:21;;;;;;;8.27;4.57;;;;;;;-1.13;54.84;100334.00;5055023;28;41628;-75
2022/03/01 04:05:50;;;;;;;9.77;4.77;;;;;;;-1.27;54.76;100315.69;5054582;28;44216;-75
2022/03/01 04:08:18;;;;;;;5.90;4.07;;;;;;;-1.21;55.17;100341.72;5071589;28;43239;-74
2022/03/01 04:10:46;;;;;;;13.60;5.27;;;;;;;-1.26;54.88;100338.22;5054532;28;41267;-74
2022/03/01 04:13:14;;;;;;;7.30;4.47;;;;;;;-1.42;54.98;100314.69;5054962;28;41663;-75
2022/03/01 04:15:41;;;;;;;6.77;4.27;;;;;;;-1.34;55.13;100329.47;5071187;28;43267;-75
2022/03/01 04:18:09;;;;;;;10.97;5.30;;;;;;;-1.36;55.23;100341.59;5072993;28;42460;-74
2022/03/01 04:20:36;;;;;;;10.80;4.70;;;;;;;-1.37;55.40;100342.47;5071554;28;39978;-73
2022/03/01 04:23:06;;;;;;;10.10;5.77;;;;;;;-1.41;55.76;100340.69;5054341;28;44242;-74
2022/03/01 04:25:34;;;;;;;10.37;5.37;;;;;;;-1.52;56.04;100324.13;5054390;28;44486;-75
2022/03/01 04:28:03;;;;;;;8.17;4.77;;;;;;;-1.46;56.01;100337.16;5072620;28;42250;-74
2022/03/01 04:30:30;;;;;;;10.03;5.50;;;;;;;-1.50;56.26;100327.63;5071111;28;40497;-74
2022/03/01 04:32:58;;;;;;;9.60;4.73;;;;;;;-1.52;56.35;100324.13;5071257;28;41797;-74
2022/03/01 04:35:27;;;;;;;9.27;5.53;;;;;;;-1.61;58.42;100292.88;5069963;28;43931;-75
2022/03/01 04:37:55;;;;;;;9.10;5.13;;;;;;;-1.58;58.12;100309.34;5054146;28;43668;-75
2022/03/01 04:40:24;;;;;;;8.03;4.70;;;;;;;-1.58;57.92;100311.06;5054447;28;39945;-75
2022/03/01 04:42:52;;;;;;;7.17;4.63;;;;;;;-1.61;57.56;100319.72;5071364;28;41635;-77
2022/03/01 04:45:20;;;;;;;6.33;4.03;;;;;;;-1.64;56.99;100314.50;5054158;28;41375;-75
2022/03/01 04:47:47;;;;;;;9.63;4.87;;;;;;;-1.67;56.96;100311.00;5054312;28;41216;-75
2022/03/01 04:50:15;;;;;;;8.30;4.83;;;;;;;-1.74;57.09;100306.59;5054173;28;41715;-74
2022/03/01 04:52:44;;;;;;;7.47;4.30;;;;;;;-1.71;58.39;100309.22;5071163;28;42316;-77
2022/03/01 04:55:12;;;;;;;10.77;4.77;;;;;;;-1.74;60.09;100297.09;5053213;28;41362;-76
2022/03/01 04:57:42;;;;;;;14.40;5.40;;;;;;;-1.78;59.00;100295.31;5053761;28;41881;-76
2022/03/01 05:00:11;;;;;;;12.07;5.83;;;;;;;-1.78;58.69;100305.69;5052632;28;41967;-74
2022/03/01 05:02:40;;;;;;;7.97;4.63;;;;;;;-1.81;59.21;100301.34;5033985;28;42498;-76
2022/03/01 05:05:10;;;;;;;5.43;3.70;;;;;;;-1.81;59.88;100292.66;5050288;28;43361;-75
2022/03/01 05:07:39;;;;;;;6.30;4.23;;;;;;;-1.83;61.12;100279.66;5033801;28;41204;-75
2022/03/01 05:10:08;;;;;;;9.40;5.13;;;;;;;-1.89;62.27;100268.38;5051867;28;40097;-76
2022/03/01 05:12:46;;;;;;;10.27;5.63;;;;;;;-1.85;61.31;100281.38;5034070;28;41294;-75
2022/03/01 05:15:13;;;;;;;6.87;4.20;;;;;;;-1.88;61.84;100281.38;5033782;28;42275;-74
2022/03/01 05:17:41;;;;;;;7.27;4.23;;;;;;;-1.90;62.17;100279.59;5050532;28;42345;-75
2022/03/01 05:20:10;;;;;;;7.60;4.77;;;;;;;-1.95;61.99;100276.06;5051610;28;39826;-74
2022/03/01 05:22:44;;;;;;;9.53;4.80;;;;;;;-2.05;62.17;100264.72;5050174;28;41777;-75
2022/03/01 05:25:14;;;;;;;5.83;4.30;;;;;;;-1.97;62.43;100288.16;5051342;28;42864;-74
2022/03/01 05:27:45;;;;;;;6.73;3.90;;;;;;;-2.00;63.13;100278.66;5050332;28;42992;-75
2022/03/01 05:30:15;;;;;;;11.57;4.40;;;;;;;-2.02;63.04;100285.53;5050302;28;39979;-75
2022/03/01 05:32:46;;;;;;;9.70;4.70;;;;;;;-2.09;62.73;100285.44;5052065;28;42271;-74
2022/03/01 05:35:17;;;;;;;7.67;3.93;;;;;;;-2.02;62.00;100305.44;5070121;28;43763;-74
2022/03/01 05:37:47;;;;;;;9.50;4.40;;;;;;;-2.03;61.87;100308.88;5067235;28;41858;-75
2022/03/01 05:40:15;;;;;;;11.20;4.07;;;;;;;-2.07;61.27;100313.16;5070172;28;39998;-74
2022/03/01 05:42:44;;;;;;;7.57;4.67;;;;;;;-2.13;61.06;100304.44;5070222;28;42721;-74
2022/03/01 05:45:13;;;;;;;8.87;4.90;;;;;;;-2.06;60.68;100325.28;5069683;28;44492;-75
2022/03/01 05:47:42;;;;;;;4.80;3.37;;;;;;;-2.07;60.82;100317.47;5071226;28;43229;-75
2022/03/01 05:50:11;;;;;;;7.33;4.43;;;;;;;-2.08;61.67;100316.59;5069989;28;43328;-75
2022/03/01 05:52:40;;;;;;;7.87;4.63;;;;;;;-2.21;60.97;100300.00;5069967;28;42669;-75
2022/03/01 05:55:09;;;;;;;5.90;4.17;;;;;;;-2.17;60.35;100319.09;5052978;28;42820;-74
2022/03/01 05:57:39;;;;;;;8.90;3.87;;;;;;;-2.15;60.18;100327.78;5053264;28;42295;-75
2022/03/01 06:00:12;;;;;;;7.00;4.37;;;;;;;-2.11;60.71;100332.16;5052578;28;39279;-75
2022/03/01 06:02:39;;;;;;;6.30;3.67;;;;;;;-2.54;60.44;100258.97;5070280;28;40401;-74
2022/03/01 06:05:08;;;;;;;12.70;4.53;;;;;;;-2.09;60.06;100343.41;5052474;28;41971;-75
2022/03/01 06:07:36;;;;;;;6.73;4.00;;;;;;;-2.08;60.97;100332.16;5052594;28;41262;-74
2022/03/01 06:10:05;;;;;;;9.10;4.17;;;;;;;-2.08;60.41;100347.75;5071052;28;40152;-77
2022/03/01 06:12:33;;;;;;;5.70;4.17;;;;;;;-2.17;60.04;100324.28;5069721;28;42228;-75
2022/03/01 06:15:01;;;;;;;8.13;4.60;;;;;;;-2.07;59.71;100344.31;5070875;28;42824;-74
2022/03/01 06:17:30;;;;;;;10.80;4.97;;;;;;;-2.05;59.55;100344.31;5052987;28;42531;-75
2022/03/01 06:19:58;;;;;;;12.13;4.63;;;;;;;-2.03;59.30;100356.47;5070945;28;41020;-74
2022/03/01 06:22:26;;;;;;;6.53;3.60;;;;;;;-2.04;59.10;100352.13;5069811;28;41635;-74
2022/03/01 06:24:55;;;;;;;6.43;3.60;;;;;;;-2.00;59.09;100351.31;5052901;28;41715;-74
2022/03/01 06:27:23;;;;;;;5.97;3.40;;;;;;;-1.98;58.99;100354.78;5070878;28;42558;-77
2022/03/01 06:29:51;;;;;;;6.60;3.47;;;;;;;-1.95;58.72;100360.03;5052515;28;38919;-75
2022/03/01 06:32:22;;;;;;;4.90;3.20;;;;;;;-1.95;58.59;100353.94;5067971;28;41783;-74
2022/03/01 06:34:51;;;;;;;7.40;3.83;;;;;;;-1.90;58.56;100352.28;5069402;28;44161;-74
2022/03/01 06:37:19;;;;;;;5.40;3.43;;;;;;;-1.86;58.21;100354.97;5069399;28;42555;-75
2022/03/01 06:39:49;;;;;;;4.83;3.50;;;;;;;-1.81;58.48;100355.00;5052623;28;39992;-76
2022/03/01 06:42:18;;;;;;;7.90;4.33;;;;;;;-1.77;58.15;100359.38;5070549;28;42620;-75
2022/03/01 06:44:46;;;;;;;6.03;4.00;;;;;;;-1.77;58.06;100354.19;5052058;28;41736;-76
2022/03/01 06:47:14;;;;;;;8.93;4.07;;;;;;;-1.68;58.02;100366.38;5069621;28;43224;-74
2022/03/01 06:49:41;;;;;;;5.17;3.93;;;;;;;-1.77;57.73;100348.13;5052836;28;40193;-74
2022/03/01 06:52:10;;;;;;;5.70;4.00;;;;;;;-1.61;57.88;100363.88;5052862;28;40457;-74
2022/03/01 06:54:38;;;;;;;5.97;3.53;;;;;;;-1.53;57.73;100376.94;5065456;28;42613;-74
2022/03/01 06:57:05;;;;;;;5.40;3.60;;;;;;;-1.49;57.72;100376.13;5052933;28;41790;-76
2022/03/01 06:59:33;;;;;;;8.17;4.23;;;;;;;-1.47;57.74;100379.59;5073710;28;39952;-76
2022/03/01 07:02:01;;;;;;;7.53;3.87;;;;;;;-1.42;57.70;100383.13;5072413;28;41735;-75
2022/03/01 07:04:28;;;;;;;7.97;4.30;;;;;;;-1.37;59.01;100376.25;5055763;28;42237;-74
2022/03/01 07:06:56;;;;;;;7.20;3.93;;;;;;;-1.27;58.53;100378.06;5072753;28;41380;-75
2022/03/01 07:09:26;;;;;;;10.97;5.07;;;;;;;-0.98;58.18;100367.91;5072562;28;38928;-74
2022/03/01 07:11:54;;;;;;;7.97;4.60;;;;;;;-0.02;57.41;100386.75;5106346;28;42710;-76
2022/03/01 07:14:21;;;;;;;6.97;4.30;;;;;;;1.56;54.35;100407.88;5072487;28;44954;-75
2022/03/01 07:16:49;;;;;;;8.73;4.57;;;;;;;2.89;51.71;100382.03;5072693;28;43319;-75
2022/03/01 07:19:17;;;;;;;8.37;4.17;;;;;;;4.77;48.71;100447.34;5072414;28;39254;-74
2022/03/01 07:21:44;;;;;;;8.13;4.13;;;;;;;5.44;46.75;100456.00;5072284;28;41790;-75
2022/03/01 07:24:12;;;;;;;9.00;4.23;;;;;;;7.18;43.74;100470.13;5072092;28;43279;-74
2022/03/01 07:26:41;;;;;;;6.67;4.00;;;;;;;9.98;39.44;100483.28;5072062;28;43466;-75
2022/03/01 07:29:09;;;;;;;6.20;4.10;;;;;;;11.65;35.97;100502.63;5072187;28;39843;-73
2022/03/01 07:31:36;;;;;;;6.07;3.90;;;;;;;10.49;34.57;100519.50;5072322;28;40923;-79
2022/03/01 07:34:04;;;;;;;6.20;3.20;;;;;;;9.05;36.60;100499.47;5072233;28;42833;-76
2022/03/01 07:36:32;;;;;;;6.10;3.60;;;;;;;8.26;37.82;100496.44;5072170;28;41911;-77
2022/03/01 07:38:59;;;;;;;6.97;4.20;;;;;;;7.57;38.32;100490.28;5055570;28;38807;-75
2022/03/01 07:41:27;;;;;;;5.93;4.10;;;;;;;7.16;38.22;100490.41;5071358;28;42730;-75
2022/03/01 07:43:56;;;;;;;7.90;3.97;;;;;;;6.37;40.06;100478.91;5071991;28;41527;-75
2022/03/01 07:46:24;;;;;;;9.00;3.93;;;;;;;5.98;41.09;100481.38;5054867;28;44149;-76
2022/03/01 07:48:52;;;;;;;9.77;4.33;;;;;;;5.84;41.63;100471.94;5055004;28;40309;-75
2022/03/01 07:51:20;;;;;;;5.47;3.63;;;;;;;6.23;40.92;100473.03;5071660;28;41718;-76
2022/03/01 07:53:47;;;;;;;6.23;3.93;;;;;;;6.25;40.30;100489.66;5054418;28;41744;-75
2022/03/01 07:56:15;;;;;;;7.77;3.77;;;;;;;5.73;40.96;100480.03;5054326;28;42280;-76
2022/03/01 07:58:43;;;;;;;6.80;4.03;;;;;;;5.29;41.94;100484.25;5054421;28;39824;-75
2022/03/01 08:01:12;;;;;;;6.93;3.80;;;;;;;4.94;42.14;100470.75;5071501;28;42426;-75
2022/03/01 08:03:39;;;;;;;6.43;3.87;;;;;;;4.95;42.13;100477.72;5054680;28;44486;-75
2022/03/01 08:06:07;;;;;;;6.13;4.00;;;;;;;4.84;42.51;100453.38;5071370;28;42466;-75
2022/03/01 08:08:36;;;;;;;7.57;4.17;;;;;;;5.34;42.31;100485.03;5054724;28;40011;-75
2022/03/01 08:11:04;;;;;;;6.73;3.47;;;;;;;5.90;41.67;100480.66;5071518;28;41357;-75
2022/03/01 08:13:32;;;;;;;7.57;4.33;;;;;;;6.38;40.78;100481.50;5054746;28;44004;-75
2022/03/01 08:16:01;;;;;;;6.27;4.13;;;;;;;6.38;41.28;100472.75;5054059;28;43551;-75
2022/03/01 08:18:30;;;;;;;8.00;3.90;;;;;;;8.78;37.88;100474.75;5071698;28;40965;-75
2022/03/01 08:20:58;;;;;;;5.03;3.73;;;;;;;11.26;34.14;100510.38;5072328;28;41661;-75
2022/03/01 08:23:26;;;;;;;6.23;3.73;;;;;;;13.95;31.40;100512.59;5071611;28;44113;-76
2022/03/01 08:25:54;;;;;;;6.47;4.30;;;;;;;16.17;27.07;100537.84;5054275;28;44445;-76
2022/03/01 08:28:26;;;;;;;7.30;4.53;;;;;;;18.78;23.94;100551.47;5068438;28;39891;-77
2022/03/01 08:30:54;;;;;;;7.60;4.43;;;;;;;21.08;22.96;100548.59;5071030;28;41785;-76
2022/03/01 08:33:24;;;;;;;5.37;4.73;;;;;;;22.95;20.76;100552.91;5071318;28;42889;-75
2022/03/01 08:35:57;;;;;;;5.93;3.93;;;;;;;24.44;19.46;100553.78;5071601;28;43093;-75
2022/03/01 08:38:25;;;;;;;4.80;4.27;;;;;;;23.89;18.67;100558.84;5071204;28;39809;-76
2022/03/01 08:40:59;;;;;;;7.03;4.47;;;;;;;22.90;18.33;100558.69;5053631;28;40720;-76
2022/03/01 08:43:27;;;;;;;6.17;4.50;;;;;;;22.47;19.27;100539.91;5070235;28;42540;-76
2022/03/01 08:45:54;;;;;;;5.10;4.53;;;;;;;23.67;17.41;100552.81;5070621;28;42106;-74
2022/03/01 08:48:22;;;;;;;4.80;4.07;;;;;;;24.79;15.89;100563.16;5054132;28;40398;-75
2022/03/01 08:50:50;;;;;;;6.57;5.03;;;;;;;26.19;15.22;100563.00;5053934;28;40805;-74
2022/03/01 08:53:20;;;;;;;5.90;4.37;;;;;;;27.26;14.27;100561.00;5070818;28;42788;-75
2022/03/01 08:55:48;;;;;;;5.67;4.27;;;;;;;27.96;14.54;100548.91;5068764;28;41575;-75
2022/03/01 08:58:16;;;;;;;5.07;4.57;;;;;;;27.99;14.09;100556.75;5051935;28;40700;-75
2022/03/01 09:00:44;;;;;;;6.30;4.23;;;;;;;26.90;14.61;100546.66;5050558;28;41573;-76
2022/03/01 09:03:11;;;;;;;5.57;4.00;;;;;;;26.36;14.60;100543.16;5051818;28;42947;-74
2022/03/01 09:05:39;;;;;;;4.90;4.33;;;;;;;26.03;15.06;100534.69;5033616;28;42345;-76
2022/03/01 09:08:12;;;;;;;6.13;3.70;;;;;;;24.27;15.01;100535.53;5048832;28;41621;-76
2022/03/01 09:10:43;;;;;;;6.10;4.30;;;;;;;21.26;17.02;100523.91;5051251;28;20290;-76
2022/03/01 09:13:17;;;;;;;4.00;3.33;;;;;;;18.99;18.64;100507.00;5050182;28;41735;-76
2022/03/01 09:15:45;;;;;;;5.07;4.00;;;;;;;18.44;19.38;100492.97;5051410;28;42394;-76
2022/03/01 09:18:13;;;;;;;5.50;3.80;;;;;;;19.49;18.41;100507.88;5050352;28;40052;-76
2022/03/01 09:20:40;;;;;;;4.67;4.00;;;;;;;20.27;17.45;100502.03;5049537;28;41812;-76
2022/03/01 09:23:08;;;;;;;4.70;3.80;;;;;;;20.60;17.57;100498.59;5033608;28;41808;-76
2022/03/01 09:25:36;;;;;;;5.10;3.63;;;;;;;19.05;18.62;100494.94;5049904;28;41159;-76
2022/03/01 09:28:06;;;;;;;4.53;3.50;;;;;;;18.32;18.33;100489.31;5033741;28;39197;-77
2022/03/01 09:30:34;;;;;;;5.40;4.30;;;;;;;18.63;18.29;100486.28;5033233;28;41253;-76
2022/03/01 09:33:02;;;;;;;5.17;4.03;;;;;;;18.99;18.30;100469.38;5050925;28;41693;-76
2022/03/01 09:35:30;;;;;;;6.57;4.20;;;;;;;19.30;17.98;100488.66;5038050;28;43985;-76
2022/03/01 09:37:59;;;;;;;6.03;3.93;;;;;;;20.73;17.13;100483.19;5088173;28;39748;-74
2022/03/01 09:40:26;;;;;;;4.83;3.63;;;;;;;21.50;16.66;100494.97;5052207;28;41997;-75
2022/03/01 09:42:54;;;;;;;5.53;4.40;;;;;;;22.71;16.11;100488.31;5052151;28;43020;-77
2022/03/01 09:45:24;;;;;;;5.17;4.43;;;;;;;23.15;15.53;100487.13;5084721;28;42500;-77
2022/03/01 09:47:52;;;;;;;6.00;4.07;;;;;;;22.15;16.29;100481.38;5056126;28;39135;-75
2022/03/01 09:50:27;;;;;;;5.37;4.00;;;;;;;20.53;17.29;100481.19;5071233;28;41770;-74
2022/03/01 09:53:06;;;;;;;6.17;3.93;;;;;;;18.69;19.30;100455.44;5053892;28;41843;-75
2022/03/01 09:55:33;;;;;;;5.53;3.83;;;;;;;17.40;20.04;100462.44;5070875;28;43197;-76
2022/03/01 09:58:01;;;;;;;6.43;4.20;;;;;;;16.31;21.69;100438.09;5053129;28;40944;-77
2022/03/01 10:00:30;;;;;;;4.60;4.00;;;;;;;16.10;21.61;100432.22;5070343;28;41446;-76
2022/03/01 10:03:00;;;;;;;5.13;3.73;;;;;;;16.35;21.33;100422.72;5069959;28;42949;-76
2022/03/01 10:05:36;;;;;;;5.27;3.90;;;;;;;18.02;19.72;100435.97;5068582;28;42432;-75
2022/03/01 10:08:08;;;;;;;5.43;4.13;;;;;;;19.36;19.13;100426.41;5069874;28;40917;-74
2022/03/01 10:10:41;;;;;;;5.37;3.67;;;;;;;19.57;18.95;100430.22;5069907;28;41855;-74
2022/03/01 10:13:10;;;;;;;4.90;3.77;;;;;;;19.88;18.74;100430.63;5069754;28;41685;-74
2022/03/01 10:15:39;;;;;;;4.87;3.67;;;;;;;19.36;19.13;100434.47;5069725;28;42934;-76
2022/03/01 10:18:15;;;;;;;4.40;3.73;;;;;;;18.10;20.14;100425.56;5053037;28;40024;-74
2022/03/01 10:20:45;;;;;;;4.83;3.60;;;;;;;18.12;19.79;100415.59;5052603;28;42016;-76
2022/03/01 10:23:21;;;;;;;5.73;4.10;;;;;;;18.45;19.65;100427.63;5071028;28;43866;-76
2022/03/01 10:25:49;;;;;;;5.47;4.37;;;;;;;19.30;18.70;100408.91;5068970;28;42283;-76
2022/03/01 10:28:16;;;;;;;7.43;4.30;;;;;;;20.77;18.27;100420.06;5069751;28;38330;-76
2022/03/01 10:30:45;;;;;;;5.87;4.00;;;;;;;21.71;17.37;100390.72;5069612;28;42585;-76
2022/03/01 10:33:15;;;;;;;5.13;3.50;;;;;;;22.91;17.21;100387.47;5071234;28;42102;-76
2022/03/01 10:35:58;;;;;;;4.43;3.80;;;;;;;24.34;16.75;100423.81;5072714;28;43383;-76
2022/03/01 10:38:26;;;;;;;4.23;3.80;;;;;;;24.87;15.70;100435.88;5073066;28;38318;-76
2022/03/01 10:41:02;;;;;;;5.57;4.07;;;;;;;25.37;14.89;100442.66;5072623;28;40865;-77
2022/03/01 10:43:30;;;;;;;6.50;4.13;;;;;;;25.89;14.71;100433.91;5074030;28;42539;-77
2022/03/01 10:46:02;;;;;;;4.23;3.83;;;;;;;26.34;13.22;100450.94;5055639;28;40810;-77
2022/03/01 10:48:32;;;;;;;5.07;4.40;;;;;;;26.68;13.80;100439.31;5073493;28;40530;-77
2022/03/01 10:51:01;;;;;;;4.90;4.20;;;;;;;27.36;14.10;100437.41;5072685;28;40610;-77
2022/03/01 10:53:30;;;;;;;5.40;3.80;;;;;;;27.41;13.93;100440.50;5072224;28;42534;-75
2022/03/01 10:56:01;;;;;;;6.00;4.50;;;;;;;27.09;13.14;100445.81;5048242;28;42005;-74
2022/03/01 10:58:29;;;;;;;4.97;3.80;;;;;;;27.02;13.59;100445.63;5050006;28;39927;-76
2022/03/01 11:00:57;;;;;;;6.30;4.40;;;;;;;27.74;14.27;100429.72;5035873;28;41938;-76
2022/03/01 11:03:26;;;;;;;5.50;4.40;;;;;;;28.45;13.00;100437.22;5035810;28;42372;-76
2022/03/01 11:05:55;;;;;;;6.63;4.83;;;;;;;29.45;11.81;100435.75;5052255;28;43054;-75
2022/03/01 11:08:25;;;;;;;4.43;4.03;;;;;;;30.24;12.37;100416.25;5086082;28;39723;-76
2022/03/01 11:10:54;;;;;;;5.37;4.00;;;;;;;30.81;12.12;100426.63;5052143;28;42146;-76
2022/03/01 11:13:26;;;;;;;4.80;4.33;;;;;;;31.55;11.26;100424.66;5053587;28;42604;-76
2022/03/01 11:16:35;;;;;;;4.95;4.43;;;;;;;32.36;10.74;100439.88;5052889;28;42229;-76
2022/03/01 11:19:29;;;;;;;4.85;4.38;;;;;;;33.18;10.68;100433.66;5050542;28;40838;-75
2022/03/01 11:21:59;;;;;;;4.25;3.85;;;;;;;33.75;10.55;100425.06;5049153;28;42426;-76
2022/03/01 11:24:28;;;;;;;4.97;4.50;;;;;;;33.24;10.12;100426.56;5051887;28;44071;-75
2022/03/01 11:27:05;;;;;;;4.47;4.07;;;;;;;33.57;10.49;100411.03;5052029;28;43183;-75
2022/03/01 11:29:38;;;;;;;4.70;4.30;;;;;;;34.02;9.59;100381.09;5050775;28;40012;-75
2022/03/01 11:32:12;;;;;;;5.40;3.90;;;;;;;34.64;10.54;100390.78;5050409;28;41764;-77
2022/03/01 11:34:41;;;;;;;6.72;4.68;;;;;;;34.98;9.88;100392.44;5049769;28;42841;-78
2022/03/01 11:37:15;;;;;;;4.95;4.45;;;;;;;35.00;9.18;100404.91;5052964;28;42138;-76